createdAt,value
2022-10-13T00:00:14.563Z,41.78
2022-10-13T00:02:41.479Z,41.78
2022-10-13T00:05:08.869Z,39.38
2022-10-13T00:07:35.812Z,40.75
2022-10-13T00:10:02.698Z,41.58
2022-10-13T00:12:29.637Z,39.13
2022-10-13T00:14:58.212Z,40.05
2022-10-13T00:17:25.149Z,41.88
2022-10-13T00:19:52.072Z,39.45
2022-10-13T00:22:19.284Z,39.75
2022-10-13T00:24:51.419Z,40.28
2022-10-13T00:27:18.357Z,38.22
2022-10-13T00:29:45.368Z,38.83
2022-10-13T00:32:12.419Z,39.13
2022-10-13T00:34:39.501Z,39.17
2022-10-13T00:37:06.860Z,39.13
2022-10-13T00:39:33.948Z,39.38
2022-10-13T00:42:01.102Z,37.42
2022-10-13T00:44:55.946Z,39.28
2022-10-13T00:47:23.827Z,38.35
2022-10-13T00:49:52.655Z,38.70
2022-10-13T00:52:21.334Z,37.45
2022-10-13T00:54:49.614Z,38.53
2022-10-13T00:57:18.110Z,38.15
2022-10-13T00:59:45.068Z,38.10
2022-10-13T01:02:12.053Z,38.03
2022-10-13T01:04:43.525Z,37.20
2022-10-13T01:07:11.054Z,37.67
2022-10-13T01:09:38.026Z,37.97
2022-10-13T01:12:14.143Z,38.15
2022-10-13T01:15:00.644Z,37.80
2022-10-13T01:18:02.560Z,38.22
2022-10-13T01:20:50.665Z,37.10
2022-10-13T01:23:17.539Z,37.55
2022-10-13T01:25:53.246Z,37.70
2022-10-13T01:28:20.180Z,37.78
2022-10-13T01:30:54.310Z,37.03
2022-10-13T01:33:55.233Z,36.97
2022-10-13T01:36:22.091Z,35.22
2022-10-13T01:38:57.037Z,37.55
2022-10-13T01:41:23.896Z,37.67
2022-10-13T01:44:13.052Z,37.53
2022-10-13T01:46:40.819Z,36.85
2022-10-13T01:49:11.890Z,36.53
2022-10-13T01:51:40.008Z,37.20
2022-10-13T01:54:07.293Z,37.55
2022-10-13T01:56:34.277Z,37.63
2022-10-13T01:59:07.790Z,39.38
2022-10-13T02:01:37.825Z,38.25
2022-10-13T02:04:14.551Z,38.03
2022-10-13T02:06:44.147Z,36.17
2022-10-13T02:09:32.870Z,36.17
2022-10-13T02:12:07.306Z,36.72
2022-10-13T02:14:36.883Z,37.08
2022-10-13T02:17:05.654Z,36.13
2022-10-13T02:19:38.966Z,35.72
2022-10-13T02:22:08.333Z,35.25
2022-10-13T02:24:35.922Z,35.85
2022-10-13T02:27:05.501Z,35.30
2022-10-13T02:29:32.871Z,37.33
2022-10-13T02:31:59.789Z,34.58
2022-10-13T02:34:27.936Z,35.78
2022-10-13T02:36:54.942Z,35.83
2022-10-13T02:39:21.854Z,35.60
2022-10-13T02:41:48.811Z,34.20
2022-10-13T02:44:15.736Z,34.65
2022-10-13T02:46:42.735Z,36.30
2022-10-13T02:49:10.495Z,35.78
2022-10-13T02:51:40.057Z,35.33
2022-10-13T02:54:07.735Z,34.40
2022-10-13T02:56:34.726Z,35.10
2022-10-13T02:59:01.648Z,35.70
2022-10-13T03:01:28.694Z,35.25
2022-10-13T03:03:55.633Z,36.05
2022-10-13T03:06:22.798Z,35.55
2022-10-13T03:08:49.862Z,35.90
2022-10-13T03:11:17.302Z,34.13
2022-10-13T03:13:44.183Z,36.83
2022-10-13T03:16:11.081Z,35.65
2022-10-13T03:18:38.021Z,36.35
2022-10-13T03:21:06.659Z,35.10
2022-10-13T03:23:33.859Z,35.17
2022-10-13T03:26:00.837Z,34.63
2022-10-13T03:28:28.708Z,34.10
2022-10-13T03:31:10.716Z,34.10
2022-10-13T03:33:37.814Z,33.95
2022-10-13T03:36:07.530Z,35.15
2022-10-13T03:38:35.619Z,35.75
2022-10-13T03:41:07.682Z,37.15
2022-10-13T03:43:35.151Z,36.87
2022-10-13T03:46:04.266Z,37.60
2022-10-13T03:48:32.376Z,37.85
2022-10-13T03:50:59.329Z,35.75
2022-10-13T03:53:26.627Z,37.83
2022-10-13T03:55:55.789Z,35.45
2022-10-13T03:58:24.156Z,36.85
2022-10-13T04:00:52.111Z,36.58
2022-10-13T04:03:19.307Z,36.08
2022-10-13T04:05:46.662Z,36.60
2022-10-13T04:08:15.051Z,36.45
2022-10-13T04:10:42.376Z,37.70
2022-10-13T04:13:09.368Z,36.35
2022-10-13T04:15:40.148Z,36.20
2022-10-13T04:18:08.352Z,36.65
2022-10-13T04:20:39.818Z,39.60
2022-10-13T04:23:07.538Z,40.17
2022-10-13T04:25:40.442Z,39.35
2022-10-13T04:30:35.191Z,38.10
2022-10-13T04:33:02.228Z,39.65
2022-10-13T04:35:29.576Z,36.97
2022-10-13T04:37:59.207Z,37.28
2022-10-13T04:40:27.511Z,36.63
2022-10-13T04:42:54.408Z,35.92
2022-10-13T04:45:21.388Z,36.30
2022-10-13T04:47:48.290Z,35.30
2022-10-13T04:50:15.199Z,40.50
2022-10-13T04:52:42.128Z,36.72
2022-10-13T04:55:09.288Z,37.40
2022-10-13T04:57:36.483Z,34.40
2022-10-13T05:00:07.368Z,36.72
2022-10-13T05:02:37.903Z,37.22
2022-10-13T05:05:05.787Z,34.15
2022-10-13T05:07:32.969Z,39.17
2022-10-13T05:09:59.856Z,37.90
2022-10-13T05:12:26.769Z,36.58
2022-10-13T05:14:53.900Z,36.30
2022-10-13T05:17:20.841Z,38.28
2022-10-13T05:19:49.658Z,37.25
2022-10-13T05:22:16.690Z,33.80
2022-10-13T05:24:43.713Z,34.90
2022-10-13T05:27:12.972Z,34.55
2022-10-13T05:29:40.381Z,34.72
2022-10-13T05:32:08.345Z,33.40
2022-10-13T05:34:35.347Z,34.88
2022-10-13T05:37:02.456Z,34.50
2022-10-13T05:39:29.374Z,34.08
2022-10-13T05:41:56.289Z,32.55
2022-10-13T05:44:24.393Z,35.38
2022-10-13T05:46:51.343Z,33.50
2022-10-13T05:49:18.281Z,33.20
2022-10-13T05:51:49.291Z,33.95
2022-10-13T05:54:31.530Z,36.15
2022-10-13T05:57:04.781Z,38.50
2022-10-13T05:59:37.512Z,34.53
2022-10-13T06:02:08.134Z,34.50
2022-10-13T06:04:40.153Z,33.40
2022-10-13T06:07:08.485Z,35.50
2022-10-13T06:09:38.086Z,38.95
2022-10-13T06:12:06.079Z,36.70
2022-10-13T06:14:33.119Z,34.28
2022-10-13T06:17:00.030Z,33.90
2022-10-13T06:19:27.094Z,33.90
2022-10-13T06:21:54.108Z,32.58
2022-10-13T06:24:21.006Z,35.70
2022-10-13T06:26:48.293Z,34.63
2022-10-13T06:29:15.396Z,34.97
2022-10-13T06:31:42.270Z,32.17
2022-10-13T06:34:09.183Z,31.52
2022-10-13T06:36:36.466Z,31.83
2022-10-13T06:39:03.816Z,33.03
2022-10-13T06:41:30.747Z,33.65
2022-10-13T06:43:57.695Z,31.63
2022-10-13T06:46:24.596Z,31.40
2022-10-13T06:48:52.341Z,34.15
2022-10-13T06:51:19.463Z,37.10
2022-10-13T06:53:46.441Z,33.08
2022-10-13T06:56:14.300Z,33.55
2022-10-13T06:58:41.218Z,40.92
2022-10-13T07:01:08.192Z,34.17
2022-10-13T07:03:35.104Z,33.50
2022-10-13T07:06:04.500Z,35.38
2022-10-13T07:08:34.642Z,34.53
2022-10-13T07:11:11.607Z,36.83
2022-10-13T07:13:46.200Z,33.83
2022-10-13T07:16:14.747Z,33.95
2022-10-13T07:18:41.642Z,33.47
2022-10-13T07:21:08.591Z,37.42
2022-10-13T07:23:35.562Z,37.17
2022-10-13T07:26:06.628Z,33.08
2022-10-13T07:28:33.623Z,34.85
2022-10-13T07:31:00.717Z,39.60
2022-10-13T07:33:27.606Z,35.45
2022-10-13T07:35:54.485Z,32.42
2022-10-13T07:38:21.402Z,34.00
2022-10-13T07:40:48.285Z,36.70
2022-10-13T07:43:15.143Z,36.70
2022-10-13T07:45:42.155Z,33.50
2022-10-13T07:48:09.108Z,34.58
2022-10-13T07:50:37.222Z,33.15
2022-10-13T07:53:05.555Z,35.03
2022-10-13T07:55:32.496Z,32.47
2022-10-13T07:58:02.634Z,30.15
2022-10-13T08:00:29.717Z,32.75
2022-10-13T08:02:56.623Z,33.28
2022-10-13T08:05:23.545Z,33.45
2022-10-13T08:07:53.486Z,35.35
2022-10-13T08:10:23.292Z,33.08
2022-10-13T08:12:50.224Z,28.83
2022-10-13T08:15:17.228Z,27.52
2022-10-13T08:17:44.101Z,32.50
2022-10-13T08:20:11.262Z,33.67
2022-10-13T08:22:38.228Z,34.72
2022-10-13T08:25:07.285Z,35.97
2022-10-13T08:27:50.072Z,42.55
2022-10-13T08:30:17.675Z,34.22
2022-10-13T08:32:44.694Z,36.42
2022-10-13T08:35:11.886Z,36.17
2022-10-13T08:37:40.491Z,33.55
2022-10-13T08:40:12.062Z,37.65
2022-10-13T08:42:44.703Z,32.83
2022-10-13T08:48:07.565Z,33.85
2022-10-13T08:50:39.127Z,36.72
2022-10-13T08:53:13.974Z,31.35
2022-10-13T08:55:45.273Z,36.17
2022-10-13T08:58:14.860Z,36.03
2022-10-13T09:00:42.321Z,36.30
2022-10-13T09:03:42.225Z,37.15
2022-10-13T09:06:40.304Z,41.03
2022-10-13T09:09:11.096Z,41.53
2022-10-13T09:11:42.009Z,38.22
2022-10-13T09:14:22.460Z,42.63
2022-10-13T09:16:50.712Z,43.05
2022-10-13T09:19:23.649Z,40.60
2022-10-13T09:21:53.220Z,40.05
2022-10-13T09:24:21.815Z,39.70
2022-10-13T09:26:52.665Z,38.58
2022-10-13T09:29:26.375Z,39.08
2022-10-13T09:32:21.861Z,39.00
2022-10-13T09:34:49.697Z,40.35
2022-10-13T09:37:22.309Z,42.05
2022-10-13T09:42:31.996Z,40.58
2022-10-13T09:45:12.096Z,38.55
2022-10-13T09:47:39.300Z,39.70
2022-10-13T09:50:15.802Z,42.33
2022-10-13T09:52:43.598Z,40.50
2022-10-13T09:55:32.798Z,38.58
2022-10-13T09:58:06.004Z,41.08
2022-10-13T10:00:33.423Z,42.72
2022-10-13T10:03:11.049Z,42.95
2022-10-13T10:05:57.981Z,41.58
2022-10-13T10:09:02.209Z,43.15
2022-10-13T10:11:35.347Z,39.35
2022-10-13T10:14:17.079Z,41.97
2022-10-13T10:16:49.699Z,44.03
2022-10-13T10:22:13.230Z,42.58
2022-10-13T10:25:00.865Z,44.50
2022-10-13T10:27:37.774Z,47.20
2022-10-13T10:30:19.695Z,47.50
2022-10-13T10:32:50.303Z,48.38
2022-10-13T10:35:44.517Z,45.78
2022-10-13T10:38:14.239Z,45.88
2022-10-13T10:40:49.895Z,47.60
2022-10-13T10:43:38.062Z,46.47
2022-10-13T10:46:13.483Z,47.65
2022-10-13T10:48:40.713Z,47.85
2022-10-13T10:51:10.195Z,47.15
2022-10-13T10:53:57.357Z,46.90
2022-10-13T10:56:54.412Z,46.05
2022-10-13T10:59:51.835Z,45.10
2022-10-13T11:02:27.700Z,45.38
2022-10-13T11:04:54.795Z,44.67
2022-10-13T11:07:24.907Z,49.00
2022-10-13T11:09:57.738Z,48.10
2022-10-13T11:12:26.784Z,50.13
2022-10-13T11:15:11.695Z,47.50
2022-10-13T11:17:40.293Z,44.63
2022-10-13T11:20:36.763Z,46.45
2022-10-13T11:23:03.586Z,47.72
2022-10-13T11:25:41.164Z,43.58
2022-10-13T11:28:40.142Z,47.25
2022-10-13T11:31:12.962Z,41.60
2022-10-13T11:33:39.809Z,45.35
2022-10-13T11:36:49.073Z,46.42
2022-10-13T11:39:42.357Z,38.80
2022-10-13T11:42:12.326Z,45.08
2022-10-13T11:44:54.612Z,46.92
2022-10-13T11:47:58.828Z,43.80
2022-10-13T11:50:34.560Z,46.85
2022-10-13T11:53:23.338Z,44.63
2022-10-13T11:55:59.022Z,39.47
2022-10-13T11:58:29.134Z,41.10
2022-10-13T12:01:14.405Z,46.30
2022-10-13T12:03:46.547Z,48.75
2022-10-13T12:06:16.680Z,46.55
2022-10-13T12:08:51.595Z,45.72
2022-10-13T12:11:28.913Z,45.40
2022-10-13T12:13:57.388Z,45.58
2022-10-13T12:16:24.540Z,48.22
2022-10-13T12:18:51.709Z,44.53
2022-10-13T12:21:21.489Z,46.47
2022-10-13T12:24:05.421Z,47.10
2022-10-13T12:26:32.643Z,46.72
2022-10-13T12:29:03.676Z,52.40
2022-10-13T12:31:42.684Z,50.65
2022-10-13T12:34:32.061Z,55.05
2022-10-13T12:37:19.211Z,55.90
2022-10-13T12:39:46.970Z,53.88
2022-10-13T12:42:14.888Z,53.08
2022-10-13T12:44:42.472Z,51.72
2022-10-13T12:47:44.122Z,52.85
2022-10-13T12:50:33.485Z,51.95
2022-10-13T12:53:03.414Z,53.83
2022-10-13T12:55:32.091Z,54.10
2022-10-13T12:57:59.358Z,53.50
2022-10-13T13:00:29.887Z,53.03
2022-10-13T13:03:06.315Z,51.20
2022-10-13T13:05:40.738Z,52.63
2022-10-13T13:08:25.990Z,50.42
2022-10-13T13:11:09.970Z,49.90
2022-10-13T13:13:36.951Z,53.70
2022-10-13T13:16:15.212Z,54.33
2022-10-13T13:18:44.232Z,52.15
2022-10-13T13:21:16.250Z,51.40
2022-10-13T13:23:51.032Z,52.38
2022-10-13T13:26:23.227Z,52.53
2022-10-13T13:28:52.578Z,52.45
2022-10-13T13:31:21.426Z,48.97
2022-10-13T13:33:49.124Z,53.35
2022-10-13T13:36:18.504Z,51.90
2022-10-13T13:38:45.726Z,51.17
2022-10-13T13:41:13.187Z,49.10
2022-10-13T13:43:40.952Z,49.25
2022-10-13T13:46:16.021Z,50.95
2022-10-13T13:48:43.119Z,53.25
2022-10-13T13:51:10.593Z,47.88
2022-10-13T13:53:38.158Z,43.13
2022-10-13T13:56:08.453Z,41.58
2022-10-13T13:58:36.270Z,41.92
2022-10-13T14:01:03.211Z,51.70
2022-10-13T14:03:30.192Z,52.42
2022-10-13T14:05:57.138Z,48.10
2022-10-13T14:08:24.062Z,46.72
2022-10-13T14:10:50.984Z,53.13
2022-10-13T14:13:18.010Z,52.03
2022-10-13T14:15:44.972Z,52.65
2022-10-13T14:18:13.540Z,47.38
2022-10-13T14:20:42.218Z,44.75
2022-10-13T14:23:09.106Z,50.35
2022-10-13T14:25:38.556Z,52.95
2022-10-13T14:28:05.709Z,46.10
2022-10-13T14:30:32.720Z,48.72
2022-10-13T14:33:00.299Z,49.47
2022-10-13T14:35:27.194Z,53.22
2022-10-13T14:37:54.068Z,52.38
2022-10-13T14:40:21.146Z,53.97
2022-10-13T14:42:48.002Z,52.33
2022-10-13T14:45:15.885Z,53.45
2022-10-13T14:47:43.020Z,51.78
2022-10-13T14:50:11.335Z,53.45
2022-10-13T14:52:38.255Z,51.45
2022-10-13T14:55:05.568Z,50.42
2022-10-13T14:57:32.446Z,51.03
2022-10-13T15:00:01.881Z,52.38
2022-10-13T15:02:29.413Z,51.53
2022-10-13T15:04:56.325Z,54.55
2022-10-13T15:07:23.663Z,52.47
2022-10-13T15:10:00.496Z,46.22
2022-10-13T15:12:31.662Z,53.72
2022-10-13T15:14:58.599Z,54.17
2022-10-13T15:17:25.529Z,48.75
2022-10-13T15:19:52.438Z,54.17
2022-10-13T15:22:19.722Z,52.33
2022-10-13T15:24:46.814Z,54.22
2022-10-13T15:27:13.811Z,57.30
2022-10-13T15:29:40.769Z,55.45
2022-10-13T15:32:13.616Z,49.53
2022-10-13T15:34:40.632Z,58.65
2022-10-13T15:37:08.070Z,54.58
2022-10-13T15:39:34.986Z,56.47
2022-10-13T15:42:02.045Z,58.35
2022-10-13T15:44:40.310Z,56.65
2022-10-13T15:47:17.294Z,59.53
2022-10-13T15:49:44.478Z,56.95
2022-10-13T15:52:11.552Z,58.58
2022-10-13T15:54:38.704Z,56.58
2022-10-13T15:57:05.720Z,55.85
2022-10-13T15:59:32.631Z,54.17
2022-10-13T16:01:59.565Z,55.00
2022-10-13T16:04:26.487Z,58.90
2022-10-13T16:06:53.570Z,56.35
2022-10-13T16:09:20.486Z,56.50
2022-10-13T16:11:47.478Z,52.10
2022-10-13T16:14:14.499Z,54.40
2022-10-13T16:16:41.445Z,55.67
2022-10-13T16:19:08.719Z,58.65
2022-10-13T16:21:35.701Z,59.38
2022-10-13T16:24:02.643Z,56.63
2022-10-13T16:26:29.593Z,60.67
2022-10-13T16:28:57.140Z,62.95
2022-10-13T16:31:24.617Z,58.80
2022-10-13T16:33:51.608Z,61.92
2022-10-13T16:36:19.937Z,63.08
2022-10-13T16:38:47.975Z,65.10
2022-10-13T16:41:18.249Z,63.65
2022-10-13T16:43:46.267Z,71.65
2022-10-13T16:46:15.314Z,64.75
2022-10-13T16:48:43.325Z,64.70
2022-10-13T16:51:14.223Z,59.42
2022-10-13T16:53:41.536Z,59.75
2022-10-13T16:56:09.036Z,57.85
2022-10-13T16:58:36.066Z,60.55
2022-10-13T17:01:11.074Z,62.08
2022-10-13T17:03:39.587Z,73.22
2022-10-13T17:06:07.110Z,67.63
2022-10-13T17:08:34.412Z,77.05
2022-10-13T17:11:04.089Z,64.10
2022-10-13T17:13:32.460Z,67.35
2022-10-13T17:15:59.787Z,65.75
2022-10-13T17:18:27.798Z,59.25
2022-10-13T17:21:00.733Z,62.10
2022-10-13T17:23:31.371Z,62.45
2022-10-13T17:26:04.001Z,63.20
2022-10-13T17:28:31.407Z,59.78
2022-10-13T17:31:04.196Z,65.70
2022-10-13T17:36:02.277Z,77.60
2022-10-13T17:38:29.953Z,69.57
2022-10-13T17:41:01.900Z,73.45
2022-10-13T17:43:29.858Z,68.20
2022-10-13T17:46:34.412Z,67.40
2022-10-13T17:48:58.771Z,77.10
2022-10-13T17:51:25.763Z,79.85
2022-10-13T17:53:53.561Z,83.63
2022-10-13T17:56:22.937Z,73.40
2022-10-13T17:58:51.249Z,78.47
2022-10-13T18:01:23.982Z,78.38
2022-10-13T18:06:23.046Z,74.30
2022-10-13T18:08:50.969Z,72.55
2022-10-13T18:11:20.639Z,79.65
2022-10-13T18:13:47.919Z,76.53
2022-10-13T18:16:20.818Z,79.47
2022-10-13T18:18:48.182Z,77.80
2022-10-13T18:21:17.278Z,78.05
2022-10-13T18:23:44.783Z,73.75
2022-10-13T18:26:17.768Z,78.55
2022-10-13T18:28:46.064Z,72.40
2022-10-13T18:31:36.776Z,73.18
2022-10-13T18:34:15.344Z,69.38
2022-10-13T18:36:47.921Z,77.07
2022-10-13T18:39:20.726Z,74.47
2022-10-13T18:41:49.104Z,71.18
2022-10-13T18:44:17.080Z,75.97
2022-10-13T18:46:44.238Z,73.60
2022-10-13T18:49:14.618Z,74.25
2022-10-13T18:51:41.967Z,73.50
2022-10-13T18:54:08.933Z,70.53
2022-10-13T18:56:37.063Z,74.88
2022-10-13T18:59:05.911Z,69.97
2022-10-13T19:01:34.387Z,71.05
2022-10-13T19:04:01.433Z,80.78
2022-10-13T19:06:31.968Z,80.53
2022-10-13T19:09:05.197Z,80.60
2022-10-13T19:11:33.029Z,75.50
2022-10-13T19:14:01.029Z,74.13
2022-10-13T19:16:29.844Z,78.28
2022-10-13T19:18:57.271Z,80.03
2022-10-13T19:21:24.861Z,80.20
2022-10-13T19:23:52.210Z,77.75
2022-10-13T19:26:23.862Z,68.05
2022-10-13T19:29:01.878Z,73.28
2022-10-13T19:31:30.644Z,81.32
2022-10-13T19:33:58.956Z,74.85
2022-10-13T19:36:33.299Z,77.50
2022-10-13T19:39:01.077Z,74.53
2022-10-13T19:41:30.846Z,75.43
2022-10-13T19:43:59.012Z,84.07
2022-10-13T19:46:26.147Z,85.50
2022-10-13T19:48:53.056Z,86.57
2022-10-13T19:51:20.074Z,91.45
2022-10-13T19:53:46.996Z,88.50
2022-10-13T19:56:32.998Z,84.53
2022-10-13T19:59:00.786Z,79.63
2022-10-13T20:01:28.272Z,76.10
2022-10-13T20:03:55.567Z,73.47
2022-10-13T20:06:23.124Z,83.60
2022-10-13T20:08:50.331Z,75.57
2022-10-13T20:11:23.827Z,74.45
2022-10-13T20:13:52.481Z,68.25
2022-10-13T20:16:23.604Z,69.20
2022-10-13T20:18:56.186Z,70.70
2022-10-13T20:21:24.680Z,69.95
2022-10-13T20:23:52.013Z,68.95
2022-10-13T20:26:19.906Z,78.57
2022-10-13T20:28:48.469Z,78.22
2022-10-13T20:31:17.690Z,68.22
2022-10-13T20:33:44.852Z,80.65
2022-10-13T20:36:15.407Z,82.40
2022-10-13T20:38:42.402Z,77.43
2022-10-13T20:41:19.095Z,73.45
2022-10-13T20:43:47.843Z,70.07
2022-10-13T20:46:16.339Z,83.63
2022-10-13T20:49:09.934Z,78.72
2022-10-13T20:51:31.327Z,75.45
2022-10-13T20:53:58.297Z,75.55
2022-10-13T20:56:26.925Z,78.60
2022-10-13T20:58:54.410Z,78.60
2022-10-13T21:01:22.761Z,79.95
2022-10-13T21:03:54.172Z,77.18
2022-10-13T21:06:23.363Z,80.03
2022-10-13T21:08:50.332Z,76.22
2022-10-13T21:11:20.549Z,74.88
2022-10-13T21:13:48.518Z,77.30
2022-10-13T21:16:21.114Z,77.88
2022-10-13T21:18:49.492Z,77.93
2022-10-13T21:21:18.901Z,81.55
2022-10-13T21:23:49.114Z,80.47
2022-10-13T21:26:21.376Z,80.38
2022-10-13T21:28:50.027Z,80.05
2022-10-13T21:31:19.240Z,80.88
2022-10-13T21:33:46.403Z,82.47
2022-10-13T21:36:14.968Z,78.68
2022-10-13T21:38:43.363Z,76.90
2022-10-13T21:41:12.379Z,78.88
2022-10-13T21:43:39.805Z,77.55
2022-10-13T21:46:15.460Z,78.90
2022-10-13T21:48:43.573Z,80.22
2022-10-13T21:51:19.796Z,78.55
2022-10-13T21:53:51.878Z,77.10
2022-10-13T21:56:19.777Z,83.35
2022-10-13T21:58:47.586Z,83.32
2022-10-13T22:01:15.181Z,83.25
2022-10-13T22:03:42.230Z,84.07
2022-10-13T22:06:17.491Z,82.45
2022-10-13T22:08:47.802Z,91.38
2022-10-13T22:11:15.454Z,90.38
2022-10-13T22:13:42.516Z,85.10
2022-10-13T22:16:15.597Z,83.40
2022-10-13T22:18:43.060Z,83.97
2022-10-13T22:21:16.989Z,79.40
2022-10-13T22:23:44.992Z,81.45
2022-10-13T22:26:13.247Z,79.38
2022-10-13T22:28:40.761Z,79.50
2022-10-13T22:31:10.660Z,79.13
2022-10-13T22:33:39.640Z,81.68
2022-10-13T22:36:18.551Z,78.70
2022-10-13T22:38:47.313Z,76.20
2022-10-13T22:41:15.899Z,76.57
2022-10-13T22:43:44.869Z,76.38
2022-10-13T22:46:17.162Z,72.97
2022-10-13T22:48:44.363Z,69.00
2022-10-13T22:51:13.781Z,69.63
2022-10-13T22:53:40.742Z,72.32
2022-10-13T22:56:14.014Z,67.47
2022-10-13T22:58:41.185Z,73.43
2022-10-13T23:01:14.012Z,74.03
2022-10-13T23:06:12.599Z,75.80
2022-10-13T23:08:39.653Z,65.20
2022-10-13T23:11:06.614Z,69.60
2022-10-13T23:13:33.553Z,70.45
2022-10-13T23:16:09.292Z,72.68
2022-10-13T23:18:36.229Z,71.20
2022-10-13T23:21:12.616Z,71.88
2022-10-13T23:23:40.294Z,66.88
2022-10-13T23:26:17.459Z,66.97
2022-10-13T23:28:45.049Z,68.07
2022-10-13T23:31:15.519Z,69.28
2022-10-13T23:33:43.120Z,72.90
2022-10-13T23:36:16.075Z,64.20
2022-10-13T23:38:43.411Z,75.40
2022-10-13T23:41:12.910Z,76.05
2022-10-13T23:43:40.628Z,70.70
2022-10-13T23:46:10.264Z,68.28
2022-10-13T23:48:38.302Z,70.10
2022-10-13T23:51:10.815Z,67.20
2022-10-13T23:53:38.933Z,66.03
2022-10-13T23:56:07.616Z,72.70
2022-10-13T23:58:39.153Z,67.38
